createdAt,value
2022-08-05T00:00:46.326Z,73.48
2022-08-05T00:01:54.868Z,73.14
2022-08-05T00:03:09.048Z,73.36
2022-08-05T00:04:18.316Z,73.42
2022-08-05T00:05:27.085Z,73.29
2022-08-05T00:06:43.257Z,73.42
2022-08-05T00:07:59.837Z,73.23
2022-08-05T00:09:05.177Z,73.30
2022-08-05T00:10:14.927Z,73.50
2022-08-05T00:11:20.498Z,73.47
2022-08-05T00:12:32.012Z,73.08
2022-08-05T00:13:38.998Z,73.25
2022-08-05T00:14:43.929Z,73.43
2022-08-05T00:15:55.110Z,73.42
2022-08-05T00:16:59.061Z,73.30
2022-08-05T00:18:04.329Z,73.37
2022-08-05T00:19:07.413Z,73.58
2022-08-05T00:20:09.896Z,73.57
2022-08-05T00:21:14.417Z,73.45
2022-08-05T00:22:16.280Z,73.72
2022-08-05T00:23:44.510Z,74.00
2022-08-05T00:24:43.239Z,74.01
2022-08-05T00:25:45.912Z,74.03
2022-08-05T00:26:51.796Z,73.71
2022-08-05T00:27:53.853Z,74.08
2022-08-05T00:28:57.935Z,74.14
2022-08-05T00:30:03.234Z,74.35
2022-08-05T00:31:07.684Z,74.15
2022-08-05T00:32:15.523Z,74.49
2022-08-05T00:34:54.291Z,74.65
2022-08-05T00:34:56.731Z,74.16
2022-08-05T00:36:16.199Z,74.54
2022-08-05T00:37:25.985Z,74.46
2022-08-05T00:38:28.689Z,74.54
2022-08-05T00:39:36.968Z,75.01
2022-08-05T00:40:53.180Z,74.85
2022-08-05T00:41:56.039Z,74.67
2022-08-05T00:42:59.635Z,74.94
2022-08-05T00:44:02.945Z,75.18
2022-08-05T00:45:11.452Z,74.82
2022-08-05T00:46:14.612Z,74.96
2022-08-05T00:47:17.572Z,75.53
2022-08-05T00:48:31.240Z,75.34
2022-08-05T00:49:44.351Z,75.33
2022-08-05T00:50:53.918Z,75.21
2022-08-05T00:51:55.543Z,75.49
2022-08-05T00:52:58.262Z,75.70
2022-08-05T00:54:03.079Z,75.51
2022-08-05T00:55:06.668Z,75.65
2022-08-05T00:56:08.692Z,75.61
2022-08-05T00:57:11.301Z,75.57
2022-08-05T00:58:16.755Z,75.42
2022-08-05T00:59:21.802Z,75.82
2022-08-05T01:00:25.939Z,75.57
2022-08-05T01:01:42.729Z,75.59
2022-08-05T01:02:50.279Z,75.63
2022-08-05T01:03:53.133Z,75.89
2022-08-05T01:04:55.258Z,75.69
2022-08-05T01:05:58.185Z,76.01
2022-08-05T01:07:00.353Z,75.82
2022-08-05T01:08:30.251Z,76.02
2022-08-05T01:09:30.591Z,75.61
2022-08-05T01:10:38.574Z,75.89
2022-08-05T01:11:42.378Z,76.28
2022-08-05T01:13:03.211Z,76.02
2022-08-05T01:14:15.807Z,76.02
2022-08-05T01:15:35.792Z,76.13
2022-08-05T01:16:48.282Z,76.25
2022-08-05T01:17:53.806Z,76.09
2022-08-05T01:19:01.639Z,76.06
2022-08-05T01:20:12.080Z,76.22
2022-08-05T01:21:38.049Z,76.34
2022-08-05T01:22:59.616Z,76.00
2022-08-05T01:24:35.684Z,76.11
2022-08-05T01:26:04.378Z,76.14
2022-08-05T01:27:17.644Z,75.96
2022-08-05T01:28:30.522Z,76.19
2022-08-05T01:29:37.723Z,76.21
2022-08-05T01:30:53.745Z,76.05
2022-08-05T01:32:03.179Z,76.13
2022-08-05T01:33:09.185Z,76.47
2022-08-05T01:34:16.305Z,76.32
2022-08-05T01:35:50.607Z,76.64
2022-08-05T01:36:51.724Z,76.65
2022-08-05T01:37:56.519Z,76.52
2022-08-05T01:39:03.133Z,76.67
2022-08-05T01:40:07.180Z,76.65
2022-08-05T01:41:10.401Z,76.73
2022-08-05T01:42:15.312Z,76.52
2022-08-05T01:43:22.068Z,76.74
2022-08-05T01:44:31.279Z,76.36
2022-08-05T01:45:43.224Z,76.75
2022-08-05T01:46:46.358Z,76.58
2022-08-05T01:47:54.591Z,76.94
2022-08-05T01:48:58.897Z,76.56
2022-08-05T01:50:03.758Z,76.49
2022-08-05T01:51:12.502Z,76.76
2022-08-05T01:52:17.866Z,76.45
2022-08-05T01:53:54.868Z,76.36
2022-08-05T01:54:53.566Z,76.34
2022-08-05T01:56:04.440Z,76.31
2022-08-05T01:58:10.382Z,76.17
2022-08-05T01:58:40.909Z,76.27
2022-08-05T01:59:52.498Z,76.40
2022-08-05T02:00:56.986Z,76.49
2022-08-05T02:02:02.487Z,76.23
2022-08-05T02:03:31.334Z,76.46
2022-08-05T02:04:37.567Z,76.19
2022-08-05T02:05:44.690Z,76.23
2022-08-05T02:06:51.585Z,76.20
2022-08-05T02:08:00.313Z,76.57
2022-08-05T02:09:07.039Z,76.21
2022-08-05T02:10:09.800Z,76.72
2022-08-05T02:11:23.713Z,76.46
2022-08-05T02:12:32.966Z,76.14
2022-08-05T02:13:53.538Z,76.38
2022-08-05T02:15:03.466Z,76.46
2022-08-05T02:16:16.475Z,76.44
2022-08-05T02:18:28.478Z,76.66
2022-08-05T02:18:53.591Z,76.55
2022-08-05T02:20:00.654Z,76.54
2022-08-05T02:21:14.869Z,76.75
2022-08-05T02:22:26.545Z,77.42
2022-08-05T02:23:33.691Z,77.94
2022-08-05T02:24:39.989Z,78.07
2022-08-05T02:25:49.529Z,78.67
2022-08-05T02:27:00.115Z,79.41
2022-08-05T02:28:14.579Z,79.60
2022-08-05T02:29:24.270Z,80.32
2022-08-05T02:30:35.097Z,80.04
2022-08-05T02:31:38.231Z,80.87
2022-08-05T02:32:41.280Z,80.86
2022-08-05T02:33:57.207Z,81.27
2022-08-05T02:35:13.375Z,81.45
2022-08-05T02:36:19.109Z,81.35
2022-08-05T02:37:23.289Z,81.46
2022-08-05T02:38:28.691Z,81.65
2022-08-05T02:39:41.306Z,81.64
2022-08-05T02:40:45.029Z,81.99
2022-08-05T02:42:00.831Z,82.14
2022-08-05T02:43:07.289Z,81.71
2022-08-05T02:44:13.061Z,82.07
2022-08-05T02:45:16.388Z,81.99
2022-08-05T02:46:27.376Z,82.17
2022-08-05T02:48:06.792Z,82.30
2022-08-05T02:48:55.947Z,82.38
2022-08-05T02:49:59.269Z,82.54
2022-08-05T02:51:04.230Z,82.82
2022-08-05T02:52:09.703Z,82.42
2022-08-05T02:53:18.976Z,82.98
2022-08-05T02:54:35.651Z,82.98
2022-08-05T02:55:52.114Z,82.88
2022-08-05T02:56:57.363Z,83.07
2022-08-05T02:58:11.718Z,83.07
2022-08-05T02:59:27.121Z,82.83
2022-08-05T03:00:30.230Z,82.77
2022-08-05T03:01:35.898Z,83.21
2022-08-05T03:02:39.986Z,83.19
2022-08-05T03:04:02.535Z,83.36
2022-08-05T03:05:10.256Z,82.97
2022-08-05T03:06:54.785Z,83.29
2022-08-05T03:07:48.421Z,83.26
2022-08-05T03:08:58.682Z,83.06
2022-08-05T03:10:03.159Z,83.33
2022-08-05T03:11:56.985Z,83.57
2022-08-05T03:12:41.163Z,83.37
2022-08-05T03:13:51.798Z,83.77
2022-08-05T03:15:07.445Z,83.82
2022-08-05T03:16:10.985Z,83.84
2022-08-05T03:17:20.240Z,83.74
2022-08-05T03:18:29.798Z,83.74
2022-08-05T03:19:34.044Z,83.96
2022-08-05T03:20:37.910Z,84.34
2022-08-05T03:21:49.624Z,83.95
2022-08-05T03:22:52.453Z,84.04
2022-08-05T03:23:55.559Z,84.35
2022-08-05T03:25:11.528Z,84.19
2022-08-05T03:26:31.450Z,84.56
2022-08-05T03:27:59.092Z,83.92
2022-08-05T03:28:56.896Z,84.26
2022-08-05T03:30:08.237Z,84.13
2022-08-05T03:31:25.858Z,84.17
2022-08-05T03:32:36.341Z,83.97
2022-08-05T03:33:52.662Z,84.10
2022-08-05T03:34:54.939Z,84.13
2022-08-05T03:35:59.385Z,83.97
2022-08-05T03:37:02.705Z,84.49
2022-08-05T03:38:04.339Z,84.27
2022-08-05T03:39:13.142Z,84.01
2022-08-05T03:40:31.373Z,83.96
2022-08-05T03:41:45.173Z,84.22
2022-08-05T03:42:52.399Z,83.83
2022-08-05T03:44:09.663Z,83.55
2022-08-05T03:45:22.792Z,83.49
2022-08-05T03:46:26.777Z,83.81
2022-08-05T03:47:35.215Z,83.47
2022-08-05T03:48:39.651Z,83.66
2022-08-05T03:49:51.268Z,83.56
2022-08-05T03:52:35.496Z,83.96
2022-08-05T03:52:50.352Z,83.52
2022-08-05T03:55:54.023Z,83.79
2022-08-05T03:56:01.608Z,83.64
2022-08-05T03:56:50.942Z,83.63
2022-08-05T03:57:55.749Z,83.95
2022-08-05T03:59:02.309Z,83.76
2022-08-05T04:00:08.027Z,83.62
2022-08-05T04:01:13.009Z,83.50
2022-08-05T04:02:17.554Z,83.88
2022-08-05T04:04:09.884Z,83.64
2022-08-05T04:05:09.620Z,83.39
2022-08-05T04:06:12.472Z,83.34
2022-08-05T04:07:15.628Z,83.39
2022-08-05T04:08:30.134Z,83.17
2022-08-05T04:09:39.006Z,83.58
2022-08-05T04:10:57.163Z,83.41
2022-08-05T04:11:59.760Z,83.26
2022-08-05T04:13:03.510Z,83.72
2022-08-05T04:14:07.062Z,83.62
2022-08-05T04:15:15.735Z,83.42
2022-08-05T04:16:24.922Z,83.54
2022-08-05T04:17:55.419Z,83.54
2022-08-05T04:18:53.908Z,83.45
2022-08-05T04:19:58.714Z,83.13
2022-08-05T04:21:01.473Z,83.02
2022-08-05T04:22:08.041Z,83.40
2022-08-05T04:23:16.077Z,83.17
2022-08-05T04:24:19.481Z,83.39
2022-08-05T04:25:57.999Z,83.15
2022-08-05T04:26:48.001Z,83.26
2022-08-05T04:27:58.111Z,83.13
2022-08-05T04:29:07.449Z,83.19
2022-08-05T04:30:10.213Z,83.55
2022-08-05T04:31:12.914Z,83.42
2022-08-05T04:32:14.488Z,83.69
2022-08-05T04:33:54.829Z,83.68
2022-08-05T04:34:46.581Z,83.40
2022-08-05T04:36:10.651Z,83.42
2022-08-05T04:37:10.904Z,83.06
2022-08-05T04:38:15.477Z,83.35
2022-08-05T04:39:17.434Z,83.54
2022-08-05T04:40:20.759Z,83.16
2022-08-05T04:41:22.323Z,83.19
2022-08-05T04:42:39.701Z,82.90
2022-08-05T04:43:48.236Z,83.41
2022-08-05T04:44:55.498Z,82.94
2022-08-05T04:45:57.655Z,83.25
2022-08-05T04:47:09.677Z,83.31
2022-08-05T04:48:27.672Z,83.03
2022-08-05T04:49:38.925Z,82.86
2022-08-05T04:51:02.736Z,82.77
2022-08-05T04:52:11.723Z,83.19
2022-08-05T04:53:16.776Z,83.22
2022-08-05T04:54:19.671Z,83.20
2022-08-05T04:56:05.044Z,82.75
2022-08-05T04:56:44.961Z,82.82
2022-08-05T04:57:48.007Z,83.18
2022-08-05T04:58:54.676Z,83.16
2022-08-05T04:59:57.474Z,83.10
2022-08-05T05:01:01.718Z,83.22
2022-08-05T05:02:07.035Z,83.18
2022-08-05T05:03:29.400Z,82.69
2022-08-05T05:04:47.857Z,83.14
2022-08-05T05:06:40.020Z,82.90
2022-08-05T05:07:17.159Z,82.82
2022-08-05T05:08:30.226Z,82.71
2022-08-05T05:09:33.447Z,82.79
2022-08-05T05:10:42.071Z,83.18
2022-08-05T05:12:02.906Z,82.79
2022-08-05T05:13:04.820Z,82.97
2022-08-05T05:14:08.594Z,83.02
2022-08-05T05:15:11.099Z,83.16
2022-08-05T05:16:13.700Z,82.77
2022-08-05T05:17:22.791Z,82.70
2022-08-05T05:18:33.193Z,82.68
2022-08-05T05:19:36.839Z,82.68
2022-08-05T05:20:47.337Z,82.64
2022-08-05T05:21:55.665Z,82.82
2022-08-05T05:23:00.733Z,82.69
2022-08-05T05:24:10.860Z,83.15
2022-08-05T05:25:16.586Z,82.56
2022-08-05T05:26:28.637Z,82.71
2022-08-05T05:27:45.220Z,82.54
2022-08-05T05:28:47.891Z,82.53
2022-08-05T05:30:05.037Z,82.53
2022-08-05T05:31:08.846Z,82.24
2022-08-05T05:32:12.589Z,82.30
2022-08-05T05:33:23.439Z,82.12
2022-08-05T05:34:26.703Z,82.14
2022-08-05T05:35:34.289Z,82.35
2022-08-05T05:36:40.763Z,82.41
2022-08-05T05:38:00.305Z,82.62
2022-08-05T05:39:04.659Z,82.42
2022-08-05T05:40:14.826Z,82.29
2022-08-05T05:41:17.560Z,82.36
2022-08-05T05:42:20.873Z,82.34
2022-08-05T05:43:56.872Z,82.54
2022-08-05T05:44:46.805Z,82.53
2022-08-05T05:45:49.391Z,82.20
2022-08-05T05:46:51.160Z,82.59
2022-08-05T05:48:06.679Z,82.53
2022-08-05T05:49:22.309Z,82.12
2022-08-05T05:50:26.711Z,81.81
2022-08-05T05:51:29.011Z,81.72
2022-08-05T05:52:52.983Z,82.09
2022-08-05T05:53:58.598Z,81.71
2022-08-05T05:55:02.265Z,81.70
2022-08-05T05:56:09.519Z,81.69
2022-08-05T05:57:13.584Z,81.63
2022-08-05T05:58:21.532Z,81.81
2022-08-05T05:59:33.197Z,81.54
2022-08-05T06:00:45.916Z,81.30
2022-08-05T06:01:57.487Z,81.39
2022-08-05T06:03:02.180Z,81.38
2022-08-05T06:04:04.096Z,81.74
2022-08-05T06:05:10.485Z,81.43
2022-08-05T06:06:18.088Z,81.61
2022-08-05T06:07:22.507Z,81.54
2022-08-05T06:08:44.523Z,81.40
2022-08-05T06:10:01.368Z,81.11
2022-08-05T06:11:07.498Z,81.39
2022-08-05T06:12:09.591Z,81.36
2022-08-05T06:13:14.562Z,81.13
2022-08-05T06:14:17.166Z,81.50
2022-08-05T06:15:23.982Z,81.58
2022-08-05T06:16:29.202Z,81.12
2022-08-05T06:17:53.075Z,81.03
2022-08-05T06:18:57.072Z,81.26
2022-08-05T06:20:02.975Z,80.98
2022-08-05T06:21:04.887Z,80.96
2022-08-05T06:22:10.785Z,80.89
2022-08-05T06:23:12.459Z,80.99
2022-08-05T06:24:16.339Z,80.91
2022-08-05T06:25:59.804Z,81.05
2022-08-05T06:26:51.643Z,81.18
2022-08-05T06:28:12.790Z,81.00
2022-08-05T06:29:42.965Z,81.05
2022-08-05T06:30:39.356Z,80.87
2022-08-05T06:31:42.979Z,80.84
2022-08-05T06:32:48.177Z,80.73
2022-08-05T06:34:06.956Z,80.52
2022-08-05T06:35:15.403Z,80.38
2022-08-05T06:36:25.933Z,79.86
2022-08-05T06:37:57.394Z,80.21
2022-08-05T06:38:53.588Z,80.15
2022-08-05T06:39:57.158Z,79.80
2022-08-05T06:40:59.906Z,80.15
2022-08-05T06:42:04.133Z,80.09
2022-08-05T06:43:07.079Z,79.65
2022-08-05T06:44:30.336Z,79.70
2022-08-05T06:46:02.882Z,79.83
2022-08-05T06:46:56.199Z,79.50
2022-08-05T06:48:36.216Z,79.56
2022-08-05T06:49:21.465Z,79.16
2022-08-05T06:50:42.053Z,79.49
2022-08-05T06:51:44.716Z,79.32
2022-08-05T06:52:58.656Z,79.38
2022-08-05T06:54:05.809Z,79.06
2022-08-05T06:55:11.909Z,79.14
2022-08-05T06:56:26.625Z,79.41
2022-08-05T06:57:57.385Z,79.32
2022-08-05T06:58:52.771Z,78.83
2022-08-05T06:59:58.316Z,79.53
2022-08-05T07:01:01.227Z,79.41
2022-08-05T07:02:02.997Z,79.40
2022-08-05T07:03:09.746Z,79.46
2022-08-05T07:04:13.923Z,79.05
2022-08-05T07:05:18.841Z,79.41
2022-08-05T07:06:23.218Z,79.17
2022-08-05T07:07:43.350Z,79.12
2022-08-05T07:08:47.458Z,79.04
2022-08-05T07:09:55.489Z,78.58
2022-08-05T07:11:02.371Z,78.94
2022-08-05T07:12:04.372Z,79.12
2022-08-05T07:13:54.288Z,79.06
2022-08-05T07:15:07.048Z,78.72
2022-08-05T07:17:56.611Z,77.87
2022-08-05T07:18:00.227Z,77.93
2022-08-05T07:19:09.833Z,77.81
2022-08-05T07:22:00.733Z,77.22
2022-08-05T07:22:56.614Z,77.22
2022-08-05T07:23:58.352Z,76.79
2022-08-05T07:25:23.027Z,76.91
2022-08-05T07:26:28.569Z,76.48
2022-08-05T07:27:58.317Z,76.00
2022-08-05T07:28:52.902Z,76.29
2022-08-05T07:30:25.348Z,76.06
2022-08-05T07:31:20.346Z,75.67
2022-08-05T07:32:43.160Z,75.41
2022-08-05T07:33:46.527Z,75.61
2022-08-05T07:34:49.025Z,75.52
2022-08-05T07:36:05.634Z,75.41
2022-08-05T07:37:23.313Z,74.86
2022-08-05T07:38:33.580Z,75.01
2022-08-05T07:40:25.821Z,74.76
2022-08-05T07:41:02.904Z,74.62
2022-08-05T07:42:31.804Z,74.80
2022-08-05T07:43:35.771Z,74.91
2022-08-05T07:44:39.747Z,74.81
2022-08-05T07:45:57.575Z,74.99
2022-08-05T07:47:01.238Z,74.60
2022-08-05T07:48:09.825Z,74.75
2022-08-05T07:49:13.643Z,75.14
2022-08-05T07:50:16.526Z,74.85
2022-08-05T07:51:23.629Z,75.18
2022-08-05T07:52:39.795Z,75.04
2022-08-05T07:53:50.455Z,74.99
2022-08-05T07:54:54.423Z,75.11
2022-08-05T07:56:06.539Z,75.50
2022-08-05T07:57:41.951Z,75.25
2022-08-05T07:58:58.667Z,74.90
2022-08-05T08:00:01.733Z,74.93
2022-08-05T08:01:13.122Z,74.64
2022-08-05T08:02:18.400Z,74.74
2022-08-05T08:03:21.577Z,74.34
2022-08-05T08:04:37.355Z,74.35
2022-08-05T08:05:47.265Z,73.98
2022-08-05T08:06:52.395Z,74.03
2022-08-05T08:07:59.591Z,73.86
2022-08-05T08:09:02.101Z,73.49
2022-08-05T08:10:06.224Z,73.81
2022-08-05T08:11:09.581Z,73.35
2022-08-05T08:12:37.350Z,73.35
2022-08-05T08:13:42.689Z,72.65
2022-08-05T08:14:51.449Z,72.79
2022-08-05T08:16:35.232Z,73.01
2022-08-05T08:17:16.466Z,72.98
2022-08-05T08:18:20.927Z,73.09
2022-08-05T08:20:23.440Z,73.06
2022-08-05T08:21:02.504Z,72.90
2022-08-05T08:22:05.786Z,72.21
2022-08-05T08:24:01.652Z,72.56
2022-08-05T08:24:41.502Z,72.34
2022-08-05T08:26:00.108Z,71.70
2022-08-05T08:27:07.134Z,71.62
2022-08-05T08:28:18.532Z,71.38
2022-08-05T08:30:04.309Z,71.18
2022-08-05T08:30:48.064Z,71.32
2022-08-05T08:31:53.042Z,71.03
2022-08-05T08:32:54.689Z,71.06
2022-08-05T08:33:57.355Z,70.56
2022-08-05T08:34:59.515Z,70.47
2022-08-05T08:36:29.409Z,70.99
2022-08-05T08:37:27.835Z,70.82
2022-08-05T08:38:35.454Z,70.68
2022-08-05T08:39:38.237Z,70.43
2022-08-05T08:40:52.334Z,70.47
2022-08-05T08:42:00.208Z,70.39
2022-08-05T08:45:19.551Z,70.39
2022-08-05T08:45:25.092Z,69.95
2022-08-05T08:45:55.101Z,70.09
2022-08-05T08:46:57.448Z,70.62
2022-08-05T08:48:12.805Z,70.17
2022-08-05T08:50:23.269Z,70.42
2022-08-05T08:51:04.010Z,70.31
2022-08-05T08:52:14.364Z,70.07
2022-08-05T08:53:17.983Z,69.60
2022-08-05T08:54:21.061Z,69.35
2022-08-05T08:55:32.017Z,69.59
2022-08-05T08:56:52.194Z,69.56
2022-08-05T08:58:00.886Z,69.38
2022-08-05T08:59:08.357Z,69.42
2022-08-05T09:00:19.435Z,69.38
2022-08-05T09:01:22.402Z,69.52
2022-08-05T09:02:26.841Z,69.68
2022-08-05T09:03:40.710Z,69.59
2022-08-05T09:05:16.459Z,69.11
2022-08-05T09:06:11.555Z,68.90
2022-08-05T09:07:19.649Z,69.14
2022-08-05T09:08:31.006Z,69.16
2022-08-05T09:09:35.656Z,69.15
2022-08-05T09:10:40.904Z,68.42
2022-08-05T09:11:51.176Z,68.49
2022-08-05T09:13:04.543Z,69.04
2022-08-05T09:14:54.024Z,69.14
2022-08-05T09:15:30.998Z,68.82
2022-08-05T09:16:33.236Z,68.98
2022-08-05T09:17:40.793Z,69.04
2022-08-05T09:18:44.916Z,69.05
2022-08-05T09:19:55.230Z,68.81
2022-08-05T09:21:11.680Z,69.18
2022-08-05T09:22:31.725Z,68.93
2022-08-05T09:23:43.437Z,69.29
2022-08-05T09:24:58.069Z,68.84
2022-08-05T09:26:09.246Z,68.76
2022-08-05T09:28:04.170Z,68.50
2022-08-05T09:28:55.351Z,68.55
2022-08-05T09:30:04.620Z,68.88
2022-08-05T09:31:44.159Z,69.03
2022-08-05T09:32:40.694Z,68.85
2022-08-05T09:33:50.910Z,68.51
2022-08-05T09:34:54.967Z,68.31
2022-08-05T09:35:59.221Z,68.54
2022-08-05T09:37:01.868Z,68.95
2022-08-05T09:38:12.631Z,68.86
2022-08-05T09:39:22.473Z,68.90
2022-08-05T09:40:32.428Z,68.88
2022-08-05T09:41:39.125Z,68.41
2022-08-05T09:42:44.071Z,68.49
2022-08-05T09:43:51.177Z,68.48
2022-08-05T09:44:56.805Z,68.51
2022-08-05T09:46:06.007Z,68.34
2022-08-05T09:47:15.650Z,68.51
2022-08-05T09:48:29.221Z,68.63
2022-08-05T09:49:54.742Z,68.50
2022-08-05T09:50:56.679Z,68.31
2022-08-05T09:51:58.263Z,68.40
2022-08-05T09:53:01.620Z,68.06
2022-08-05T09:54:08.339Z,67.91
2022-08-05T09:55:57.872Z,68.12
2022-08-05T09:56:37.890Z,67.80
2022-08-05T09:57:43.416Z,67.74
2022-08-05T09:58:57.504Z,67.52
2022-08-05T10:00:05.971Z,67.38
2022-08-05T10:01:31.430Z,67.51
2022-08-05T10:02:38.980Z,67.57
2022-08-05T10:03:58.630Z,67.01
2022-08-05T10:05:08.287Z,66.96
2022-08-05T10:06:15.596Z,66.93
2022-08-05T10:07:20.366Z,66.52
2022-08-05T10:08:42.513Z,66.42
2022-08-05T10:10:15.197Z,66.04
2022-08-05T10:11:18.563Z,66.37
2022-08-05T10:12:33.255Z,65.97
2022-08-05T10:13:45.572Z,65.96
2022-08-05T10:14:50.891Z,65.65
2022-08-05T10:15:58.186Z,65.10
2022-08-05T10:17:37.692Z,64.72
2022-08-05T10:18:38.944Z,64.37
2022-08-05T10:20:04.534Z,64.38
2022-08-05T10:21:11.974Z,63.91
2022-08-05T10:22:29.678Z,63.86
2022-08-05T10:23:59.924Z,63.60
2022-08-05T10:24:56.332Z,63.41
2022-08-05T10:26:00.221Z,62.88
2022-08-05T10:27:01.895Z,62.65
2022-08-05T10:28:13.937Z,62.91
2022-08-05T10:29:24.052Z,62.42
2022-08-05T10:32:49.379Z,62.36
2022-08-05T10:32:54.989Z,62.18
2022-08-05T10:33:35.150Z,62.31
2022-08-05T10:34:44.819Z,62.24
2022-08-05T10:36:00.037Z,61.95
2022-08-05T10:37:03.370Z,62.20
2022-08-05T10:38:06.495Z,61.75
2022-08-05T10:39:20.401Z,61.48
2022-08-05T10:40:33.615Z,61.93
2022-08-05T10:41:45.314Z,61.64
2022-08-05T10:42:53.207Z,61.49
2022-08-05T10:44:02.355Z,61.23
2022-08-05T10:45:21.530Z,60.99
2022-08-05T10:46:45.388Z,61.06
2022-08-05T10:48:29.932Z,61.12
2022-08-05T10:49:16.457Z,61.22
2022-08-05T10:50:35.283Z,61.17
2022-08-05T10:51:59.926Z,61.24
2022-08-05T10:53:03.171Z,61.50
2022-08-05T10:54:23.105Z,61.58
2022-08-05T10:55:30.345Z,61.36
2022-08-05T10:56:44.851Z,61.42
2022-08-05T10:57:47.766Z,61.44
2022-08-05T10:59:12.172Z,61.48
2022-08-05T11:00:19.792Z,61.54
2022-08-05T11:01:55.470Z,61.44
2022-08-05T11:03:25.979Z,61.33
2022-08-05T11:04:30.725Z,61.10
2022-08-05T11:05:34.702Z,61.20
2022-08-05T11:07:06.782Z,61.31
2022-08-05T11:08:33.786Z,61.46
2022-08-05T11:09:45.553Z,61.01
2022-08-05T11:11:01.498Z,60.82
2022-08-05T11:12:45.377Z,60.31
2022-08-05T11:13:54.744Z,60.14
2022-08-05T11:15:19.733Z,59.80
2022-08-05T11:16:47.617Z,59.90
2022-08-05T11:17:59.346Z,59.97
2022-08-05T11:20:10.310Z,59.90
2022-08-05T11:20:51.943Z,59.86
2022-08-05T11:21:54.423Z,59.92
2022-08-05T11:23:05.930Z,60.19
2022-08-05T11:24:29.736Z,59.75
2022-08-05T11:26:04.711Z,59.70
2022-08-05T11:27:45.796Z,59.51
2022-08-05T11:28:55.733Z,59.23
2022-08-05T11:30:00.962Z,58.97
2022-08-05T11:31:54.381Z,58.65
2022-08-05T11:33:26.050Z,58.71
2022-08-05T11:34:51.125Z,58.69
2022-08-05T11:36:07.951Z,58.96
2022-08-05T11:38:29.692Z,58.49
2022-08-05T11:38:54.554Z,58.32
2022-08-05T11:40:03.411Z,57.80
2022-08-05T11:41:35.390Z,57.39
2022-08-05T11:42:29.729Z,57.80
2022-08-05T11:44:04.968Z,57.04
2022-08-05T11:45:02.223Z,57.33
2022-08-05T11:46:27.019Z,57.59
2022-08-05T11:47:49.283Z,57.09
2022-08-05T11:48:50.010Z,57.19
2022-08-05T11:49:58.469Z,56.91
2022-08-05T11:51:01.704Z,57.44
2022-08-05T11:52:11.372Z,56.99
2022-08-05T11:53:13.746Z,57.07
2022-08-05T11:54:33.194Z,57.10
2022-08-05T11:55:36.965Z,56.99
2022-08-05T11:56:50.301Z,56.78
2022-08-05T11:58:09.357Z,56.68
2022-08-05T11:59:16.131Z,57.08
2022-08-05T12:00:28.875Z,56.81
2022-08-05T12:01:31.791Z,57.23
2022-08-05T12:02:36.131Z,57.42
2022-08-05T12:03:43.629Z,57.06
2022-08-05T12:05:00.183Z,57.30
2022-08-05T12:06:06.046Z,57.10
2022-08-05T12:07:11.347Z,57.45
2022-08-05T12:08:18.120Z,57.07
2022-08-05T12:09:52.542Z,57.09
2022-08-05T12:10:50.361Z,56.65
2022-08-05T12:11:55.198Z,56.23
2022-08-05T12:13:03.778Z,56.07
2022-08-05T12:14:18.708Z,56.32
2022-08-05T12:15:38.021Z,56.40
2022-08-05T12:16:45.510Z,56.03
2022-08-05T12:18:09.887Z,55.94
2022-08-05T12:20:25.724Z,55.90
2022-08-05T12:20:38.436Z,55.75
2022-08-05T12:21:48.176Z,55.92
2022-08-05T12:22:51.876Z,56.04
2022-08-05T12:24:00.093Z,55.99
2022-08-05T12:25:06.866Z,55.45
2022-08-05T12:26:09.335Z,55.73
2022-08-05T12:27:21.688Z,55.24
2022-08-05T12:28:31.366Z,55.45
2022-08-05T12:29:38.695Z,55.49
2022-08-05T12:30:45.643Z,55.39
2022-08-05T12:31:53.435Z,55.68
2022-08-05T12:32:58.602Z,55.59
2022-08-05T12:34:20.654Z,55.08
2022-08-05T12:35:24.777Z,55.49
2022-08-05T12:36:42.595Z,54.98
2022-08-05T12:37:47.557Z,54.70
2022-08-05T12:38:51.433Z,54.90
2022-08-05T12:40:03.737Z,54.52
2022-08-05T12:41:16.172Z,54.43
2022-08-05T12:42:20.707Z,54.12
2022-08-05T12:43:22.460Z,54.13
2022-08-05T12:44:33.642Z,53.95
2022-08-05T12:45:48.196Z,54.16
2022-08-05T12:46:54.257Z,54.15
2022-08-05T12:48:01.543Z,53.69
2022-08-05T12:49:19.042Z,53.89
2022-08-05T12:50:23.823Z,53.83
2022-08-05T12:52:10.320Z,54.03
2022-08-05T12:53:00.399Z,53.63
2022-08-05T12:54:04.902Z,53.91
2022-08-05T12:55:25.053Z,53.00
2022-08-05T12:56:35.245Z,53.18
2022-08-05T12:58:39.045Z,52.95
2022-08-05T12:59:20.997Z,52.61
2022-08-05T13:02:00.419Z,52.51
2022-08-05T13:02:07.418Z,53.03
2022-08-05T13:03:12.172Z,53.22
2022-08-05T13:04:21.007Z,53.13
2022-08-05T13:05:23.605Z,52.67
2022-08-05T13:06:27.328Z,53.18
2022-08-05T13:07:57.306Z,53.08
2022-08-05T13:08:55.006Z,53.40
2022-08-05T13:09:59.852Z,53.09
2022-08-05T13:11:04.183Z,53.58
2022-08-05T13:12:08.688Z,53.75
2022-08-05T13:14:06.341Z,53.84
2022-08-05T13:14:43.921Z,53.07
2022-08-05T13:15:51.225Z,53.57
2022-08-05T13:16:56.558Z,53.39
2022-08-05T13:17:59.230Z,53.43
2022-08-05T13:19:02.658Z,53.27
2022-08-05T13:20:08.733Z,54.08
2022-08-05T13:21:10.392Z,54.55
2022-08-05T13:22:28.351Z,55.62
2022-08-05T13:23:32.605Z,57.77
2022-08-05T13:24:51.128Z,59.15
2022-08-05T13:26:01.857Z,60.64
2022-08-05T13:27:03.842Z,61.14
2022-08-05T13:28:07.833Z,61.48
2022-08-05T13:29:19.147Z,61.88
2022-08-05T13:30:38.889Z,61.48
2022-08-05T13:32:04.634Z,61.57
2022-08-05T13:33:05.623Z,60.54
2022-08-05T13:34:21.945Z,59.94
2022-08-05T13:35:31.487Z,59.90
2022-08-05T13:36:50.331Z,59.47
2022-08-05T13:37:55.515Z,58.66
2022-08-05T13:38:58.544Z,58.51
2022-08-05T13:40:20.104Z,58.14
2022-08-05T13:41:37.391Z,57.91
2022-08-05T13:42:40.390Z,57.31
2022-08-05T13:43:54.585Z,56.93
2022-08-05T13:44:58.994Z,56.26
2022-08-05T13:46:00.624Z,55.58
2022-08-05T13:47:08.346Z,55.45
2022-08-05T13:48:58.835Z,54.66
2022-08-05T13:49:35.445Z,54.48
2022-08-05T13:50:37.192Z,54.11
2022-08-05T13:51:46.077Z,53.99
2022-08-05T13:52:49.878Z,53.60
2022-08-05T13:53:52.707Z,53.25
2022-08-05T13:55:02.145Z,53.43
2022-08-05T13:56:18.844Z,53.39
2022-08-05T13:57:22.539Z,53.10
2022-08-05T13:58:31.023Z,53.06
2022-08-05T13:59:34.121Z,52.61
2022-08-05T14:00:37.368Z,52.37
2022-08-05T14:01:46.678Z,52.47
2022-08-05T14:03:01.019Z,52.32
2022-08-05T14:04:22.278Z,52.16
2022-08-05T14:05:48.304Z,52.07
2022-08-05T14:06:58.722Z,52.11
2022-08-05T14:08:20.222Z,52.05
2022-08-05T14:09:29.940Z,51.47
2022-08-05T14:10:33.333Z,51.55
2022-08-05T14:12:04.066Z,51.50
2022-08-05T14:13:02.754Z,51.41
2022-08-05T14:14:08.439Z,51.22
2022-08-05T14:16:05.783Z,51.30
2022-08-05T14:16:34.013Z,51.19
2022-08-05T14:17:36.179Z,51.46
2022-08-05T14:18:40.132Z,51.71
2022-08-05T14:19:56.083Z,51.39
2022-08-05T14:21:00.212Z,51.32
2022-08-05T14:22:22.894Z,51.32
2022-08-05T14:23:36.466Z,51.52
2022-08-05T14:24:42.107Z,51.38
2022-08-05T14:25:54.099Z,50.97
2022-08-05T14:27:17.259Z,51.00
2022-08-05T14:28:26.732Z,51.02
2022-08-05T14:29:31.342Z,50.60
2022-08-05T14:30:34.908Z,50.67
2022-08-05T14:32:03.295Z,50.20
2022-08-05T14:33:01.568Z,50.47
2022-08-05T14:34:03.232Z,49.95
2022-08-05T14:35:06.859Z,50.31
2022-08-05T14:36:13.482Z,50.34
2022-08-05T14:37:17.097Z,49.56
2022-08-05T14:38:32.243Z,49.78
2022-08-05T14:39:49.943Z,50.19
2022-08-05T14:40:59.623Z,50.34
2022-08-05T14:42:21.203Z,50.02
2022-08-05T14:44:02.195Z,49.62
2022-08-05T14:44:47.059Z,49.71
2022-08-05T14:45:48.663Z,49.32
2022-08-05T14:46:51.309Z,49.05
2022-08-05T14:48:04.175Z,49.60
2022-08-05T14:49:08.943Z,49.10
2022-08-05T14:50:17.794Z,48.53
2022-08-05T14:51:21.225Z,48.64
2022-08-05T14:52:50.418Z,48.48
2022-08-05T14:54:06.609Z,47.74
2022-08-05T14:55:15.433Z,48.33
2022-08-05T14:56:22.705Z,47.87
2022-08-05T14:57:53.970Z,47.47
2022-08-05T14:58:53.216Z,46.98
2022-08-05T14:59:54.979Z,47.60
2022-08-05T15:01:00.390Z,47.27
2022-08-05T15:02:15.155Z,46.45
2022-08-05T15:03:18.798Z,46.53
2022-08-05T15:04:24.631Z,46.94
2022-08-05T15:06:07.999Z,46.80
2022-08-05T15:06:54.248Z,46.05
2022-08-05T15:08:11.490Z,46.09
2022-08-05T15:09:52.286Z,46.60
2022-08-05T15:10:43.155Z,46.25
2022-08-05T15:11:52.767Z,46.95
2022-08-05T15:13:00.937Z,46.67
2022-08-05T15:14:05.966Z,47.13